Airport View

Enter AWOS ICAO identifier for current METAR.

KFNL for example

KPIT 232251Z 21004KT 10SM FEW038 BKN085 OVC220 19/12 A2981 RMK AO2 SLP098 T01940117

23 Feb 2017 22:51

Phone: 412-472-0145

Other Area AWOS: 42PN - KAGC - KBVI - KBTP

TAF AMD KPIT 232055Z 2321/2424 24008KT P6SM BKN035 FM241000 18003KT P6SM SCT035 FM241700 19012G20KT P6SM SCT035